createdAt,value
2022-12-03T00:00:00.169Z,61.45
2022-12-03T00:02:27.335Z,70.20
2022-12-03T00:07:22.019Z,64.90
2022-12-03T00:09:49.000Z,62.92
2022-12-03T00:12:16.026Z,64.55
2022-12-03T00:14:44.879Z,65.63
2022-12-03T00:17:12.169Z,66.80
2022-12-03T00:19:39.183Z,67.40
2022-12-03T00:22:06.106Z,62.72
2022-12-03T00:24:33.158Z,68.78
2022-12-03T00:27:00.119Z,73.22
2022-12-03T00:29:27.260Z,70.85
2022-12-03T00:31:54.178Z,73.25
2022-12-03T00:34:22.817Z,64.75
2022-12-03T00:36:49.895Z,68.20
2022-12-03T00:39:17.097Z,72.55
2022-12-03T00:41:44.061Z,69.00
2022-12-03T00:44:12.000Z,76.97
2022-12-03T00:46:39.094Z,73.57
2022-12-03T00:49:06.589Z,73.57
2022-12-03T00:51:36.013Z,70.43
2022-12-03T00:54:03.200Z,76.75
2022-12-03T00:56:30.264Z,80.03
2022-12-03T00:58:57.279Z,76.53
2022-12-03T01:01:24.367Z,81.63
2022-12-03T01:03:51.496Z,78.30
2022-12-03T01:06:18.512Z,74.03
2022-12-03T01:08:45.459Z,71.53
2022-12-03T01:11:31.222Z,74.15
2022-12-03T01:13:58.378Z,73.95
2022-12-03T01:16:25.402Z,73.75
2022-12-03T01:18:53.015Z,72.05
2022-12-03T01:21:20.287Z,76.72
2022-12-03T01:23:47.410Z,68.68
2022-12-03T01:26:14.402Z,77.25
2022-12-03T01:28:44.498Z,74.43
2022-12-03T01:31:29.871Z,75.75
2022-12-03T01:33:57.020Z,76.13
2022-12-03T01:36:23.970Z,75.50
2022-12-03T01:38:51.019Z,78.43
2022-12-03T01:41:18.409Z,77.70
2022-12-03T01:43:46.182Z,78.30
2022-12-03T01:46:15.950Z,76.60
2022-12-03T01:48:43.019Z,87.72
2022-12-03T01:53:37.103Z,82.95
2022-12-03T01:56:06.438Z,85.40
2022-12-03T01:58:33.499Z,75.60
2022-12-03T02:01:02.899Z,81.13
2022-12-03T02:03:30.115Z,79.10
2022-12-03T02:05:57.150Z,90.90
2022-12-03T02:08:35.520Z,82.97
2022-12-03T02:11:09.300Z,82.15
2022-12-03T02:13:36.589Z,87.07
2022-12-03T02:16:04.757Z,77.03
2022-12-03T02:18:31.921Z,86.40
2022-12-03T02:21:23.473Z,81.55
2022-12-03T02:23:56.420Z,77.28
2022-12-03T02:26:23.705Z,82.95
2022-12-03T02:28:51.450Z,86.45
2022-12-03T02:31:18.462Z,80.47
2022-12-03T02:33:45.742Z,88.05
2022-12-03T02:36:12.999Z,84.55
2022-12-03T02:38:41.551Z,87.57
2022-12-03T02:41:32.468Z,78.72
2022-12-03T02:43:59.579Z,79.95
2022-12-03T02:46:26.672Z,84.50
2022-12-03T02:48:53.821Z,83.88
2022-12-03T02:51:20.858Z,83.40
2022-12-03T02:53:51.100Z,83.22
2022-12-03T02:56:21.588Z,80.63
2022-12-03T02:58:50.430Z,85.65
2022-12-03T03:01:18.109Z,78.65
2022-12-03T03:03:46.063Z,86.70
2022-12-03T03:06:13.822Z,81.00
2022-12-03T03:08:41.960Z,80.90
2022-12-03T03:11:09.018Z,81.80
2022-12-03T03:13:36.899Z,75.95
2022-12-03T03:16:05.661Z,76.13
2022-12-03T03:18:33.902Z,79.25
2022-12-03T03:21:01.660Z,77.80
2022-12-03T03:23:28.619Z,81.22
2022-12-03T03:26:12.541Z,81.28
2022-12-03T03:28:42.380Z,80.72
2022-12-03T03:31:11.001Z,79.15
2022-12-03T03:33:42.105Z,84.78
2022-12-03T03:36:09.658Z,84.43
2022-12-03T03:38:37.282Z,85.47
2022-12-03T03:41:06.423Z,83.00
2022-12-03T03:43:34.943Z,86.97
2022-12-03T03:46:04.277Z,85.07
2022-12-03T03:48:31.961Z,82.68
2022-12-03T03:50:58.965Z,86.10
2022-12-03T03:53:26.220Z,90.50
2022-12-03T03:55:53.379Z,83.72
2022-12-03T03:58:20.500Z,91.18
2022-12-03T04:00:47.752Z,87.50
2022-12-03T04:03:14.747Z,88.53
2022-12-03T04:05:41.920Z,92.90
2022-12-03T04:08:08.951Z,92.18
2022-12-03T04:10:54.362Z,85.32
2022-12-03T04:13:21.343Z,89.10
2022-12-03T04:15:48.419Z,83.95
2022-12-03T04:18:34.059Z,82.75
2022-12-03T04:21:19.845Z,86.15
2022-12-03T04:23:46.900Z,91.78
2022-12-03T04:26:32.243Z,86.88
2022-12-03T04:28:59.260Z,88.50
2022-12-03T04:31:44.697Z,86.25
2022-12-03T04:34:30.252Z,87.60
2022-12-03T04:36:57.300Z,86.15
2022-12-03T04:39:24.240Z,82.43
2022-12-03T04:41:51.159Z,76.55
2022-12-03T04:44:36.646Z,83.75
2022-12-03T04:47:09.744Z,81.28
2022-12-03T04:49:41.871Z,73.43
2022-12-03T04:52:09.921Z,86.40
2022-12-03T04:54:37.258Z,84.28
2022-12-03T04:57:05.130Z,82.35
2022-12-03T04:59:32.919Z,80.80
2022-12-03T05:01:59.933Z,81.90
2022-12-03T05:04:27.180Z,85.82
2022-12-03T05:06:54.257Z,84.80
2022-12-03T05:09:21.402Z,82.55
2022-12-03T05:11:48.398Z,83.57
2022-12-03T05:14:15.470Z,85.32
2022-12-03T05:16:42.504Z,87.60
2022-12-03T05:19:10.238Z,89.90
2022-12-03T05:21:37.165Z,83.10
2022-12-03T05:24:04.620Z,93.43
2022-12-03T05:26:31.569Z,80.75
2022-12-03T05:28:58.642Z,85.18
2022-12-03T05:31:25.775Z,92.28
2022-12-03T05:33:52.997Z,91.70
2022-12-03T05:36:19.967Z,83.60
2022-12-03T05:38:47.077Z,91.60
2022-12-03T05:41:33.498Z,98.25
2022-12-03T05:44:00.805Z,81.70
2022-12-03T05:46:27.976Z,87.28
2022-12-03T05:48:55.350Z,80.40
2022-12-03T05:51:22.337Z,88.18
2022-12-03T05:53:49.424Z,90.05
2022-12-03T05:56:16.329Z,95.88
2022-12-03T05:58:43.420Z,96.38
2022-12-03T06:01:10.360Z,90.95
2022-12-03T06:03:37.558Z,106.00
2022-12-03T06:06:05.063Z,111.32
2022-12-03T06:08:32.012Z,103.70
2022-12-03T06:10:59.078Z,89.60
2022-12-03T06:13:25.977Z,98.32
2022-12-03T06:15:53.148Z,96.63
2022-12-03T06:18:20.266Z,101.20
2022-12-03T06:20:47.458Z,107.15
2022-12-03T06:23:14.370Z,102.97
2022-12-03T06:25:41.723Z,99.72
2022-12-03T06:28:09.822Z,94.85
2022-12-03T06:30:36.882Z,86.03
2022-12-03T06:33:04.164Z,95.55
2022-12-03T06:35:31.638Z,91.72
2022-12-03T06:37:58.732Z,92.30
2022-12-03T06:40:26.820Z,90.70
2022-12-03T06:42:53.778Z,94.65
2022-12-03T06:45:20.831Z,95.15
2022-12-03T06:47:47.864Z,88.03
2022-12-03T06:50:14.971Z,85.40
2022-12-03T06:52:42.647Z,90.32
2022-12-03T06:55:10.500Z,92.32
2022-12-03T06:57:37.542Z,90.93
2022-12-03T07:00:06.628Z,91.82
2022-12-03T07:02:33.658Z,90.38
2022-12-03T07:05:00.819Z,82.78
2022-12-03T07:07:27.834Z,97.53
2022-12-03T07:09:54.942Z,88.82
2022-12-03T07:12:22.052Z,83.50
2022-12-03T07:14:49.040Z,85.40
2022-12-03T07:17:16.047Z,73.85
2022-12-03T07:19:43.003Z,81.20
2022-12-03T07:22:09.988Z,89.88
2022-12-03T07:24:37.062Z,88.05
2022-12-03T07:27:04.007Z,81.20
2022-12-03T07:29:31.119Z,80.40
2022-12-03T07:31:58.060Z,71.47
2022-12-03T07:34:25.199Z,75.70
2022-12-03T07:36:52.564Z,86.20
2022-12-03T07:39:19.658Z,90.22
2022-12-03T07:41:46.898Z,92.50
2022-12-03T07:44:15.085Z,97.03
2022-12-03T07:46:42.777Z,87.03
2022-12-03T07:49:09.908Z,95.60
2022-12-03T07:51:37.197Z,89.63
2022-12-03T07:54:04.747Z,83.70
2022-12-03T07:56:31.925Z,84.93
2022-12-03T07:58:58.873Z,81.90
2022-12-03T08:01:26.048Z,88.78
2022-12-03T08:03:53.195Z,88.30
2022-12-03T08:06:20.120Z,74.70
2022-12-03T08:08:47.229Z,87.65
2022-12-03T08:11:15.268Z,89.30
2022-12-03T08:13:42.918Z,91.88
2022-12-03T08:16:16.703Z,86.25
2022-12-03T08:18:44.781Z,88.82
2022-12-03T08:21:18.877Z,88.97
2022-12-03T08:23:46.337Z,80.82
2022-12-03T08:26:17.817Z,90.47
2022-12-03T08:28:44.830Z,86.32
2022-12-03T08:31:32.839Z,79.03
2022-12-03T08:34:19.983Z,86.45
2022-12-03T08:36:48.720Z,81.75
2022-12-03T08:39:29.259Z,87.32
2022-12-03T08:42:46.639Z,81.93
2022-12-03T08:45:28.176Z,86.45
2022-12-03T08:48:01.326Z,74.35
2022-12-03T08:50:38.839Z,77.40
2022-12-03T08:53:29.931Z,73.45
2022-12-03T08:56:03.912Z,57.73
2022-12-03T08:58:38.028Z,70.55
2022-12-03T09:01:11.030Z,76.53
2022-12-03T09:03:52.825Z,65.88
2022-12-03T09:06:20.164Z,73.80
2022-12-03T09:08:47.378Z,68.43
2022-12-03T09:11:14.774Z,74.97
2022-12-03T09:13:41.845Z,66.97
2022-12-03T09:16:09.251Z,64.72
2022-12-03T09:18:36.406Z,73.25
2022-12-03T09:21:03.743Z,74.53
2022-12-03T09:23:30.810Z,70.22
2022-12-03T09:25:59.371Z,76.10
2022-12-03T09:28:26.519Z,73.53
2022-12-03T09:30:53.459Z,81.55
2022-12-03T09:33:20.699Z,72.03
2022-12-03T09:35:47.711Z,80.60
2022-12-03T09:38:14.757Z,77.20
2022-12-03T09:40:42.261Z,82.00
2022-12-03T09:43:09.548Z,80.15
2022-12-03T09:45:36.573Z,83.68
2022-12-03T09:48:05.342Z,79.78
2022-12-03T09:50:32.904Z,80.90
2022-12-03T09:53:03.203Z,71.25
2022-12-03T09:55:31.238Z,82.43
2022-12-03T09:57:58.340Z,78.65
2022-12-03T10:00:28.297Z,84.18
2022-12-03T10:02:58.372Z,77.68
2022-12-03T10:05:25.429Z,86.65
2022-12-03T10:07:53.279Z,78.18
2022-12-03T10:10:22.967Z,74.85
2022-12-03T10:12:51.344Z,77.95
2022-12-03T10:15:20.463Z,80.80
2022-12-03T10:17:48.588Z,86.43
2022-12-03T10:20:20.275Z,81.93
2022-12-03T10:23:02.424Z,88.35
2022-12-03T10:25:29.437Z,87.88
2022-12-03T10:27:59.466Z,95.30
2022-12-03T10:30:28.833Z,88.60
2022-12-03T10:32:58.260Z,86.93
2022-12-03T10:35:39.581Z,104.00
2022-12-03T10:38:08.353Z,83.60
2022-12-03T10:40:39.473Z,100.05
2022-12-03T10:43:18.295Z,107.65
2022-12-03T10:46:12.444Z,97.28
2022-12-03T10:48:39.683Z,99.00
2022-12-03T10:51:13.829Z,90.43
2022-12-03T10:53:41.722Z,93.03
2022-12-03T10:56:18.402Z,102.97
2022-12-03T10:58:45.395Z,98.70
2022-12-03T11:01:18.085Z,88.25
2022-12-03T11:03:45.834Z,90.60
2022-12-03T11:06:18.481Z,90.72
2022-12-03T11:08:54.707Z,94.93
2022-12-03T11:11:28.389Z,88.40
2022-12-03T11:14:00.133Z,91.13
2022-12-03T11:16:48.138Z,88.38
2022-12-03T11:19:21.990Z,85.80
2022-12-03T11:22:10.046Z,88.25
2022-12-03T11:24:38.981Z,82.47
2022-12-03T11:27:10.698Z,83.78
2022-12-03T11:29:44.974Z,76.65
2022-12-03T11:32:12.199Z,75.85
2022-12-03T11:34:41.078Z,79.88
2022-12-03T11:37:10.954Z,79.63
2022-12-03T11:39:50.576Z,81.20
2022-12-03T11:42:26.512Z,77.28
2022-12-03T11:45:30.875Z,95.53
2022-12-03T11:48:24.053Z,87.03
2022-12-03T11:50:53.463Z,97.97
2022-12-03T11:53:26.531Z,93.85
2022-12-03T11:56:09.333Z,93.20
2022-12-03T11:58:38.930Z,87.03
2022-12-03T12:01:07.753Z,92.75
2022-12-03T12:03:37.399Z,98.68
2022-12-03T12:06:09.316Z,95.43
2022-12-03T12:08:41.598Z,82.38
2022-12-03T12:11:41.826Z,81.38
2022-12-03T12:14:10.757Z,82.25
2022-12-03T12:16:50.676Z,89.07
2022-12-03T12:19:38.475Z,80.53
2022-12-03T12:22:27.391Z,85.43
2022-12-03T12:24:56.548Z,84.75
2022-12-03T12:27:33.010Z,79.20
2022-12-03T12:30:02.496Z,82.63
2022-12-03T12:32:31.881Z,81.20
2022-12-03T12:35:24.694Z,88.45
2022-12-03T12:38:11.861Z,88.15
2022-12-03T12:40:45.430Z,87.97
2022-12-03T12:43:16.463Z,88.47
2022-12-03T12:45:46.353Z,89.38
2022-12-03T12:48:13.282Z,97.18
2022-12-03T12:50:45.805Z,100.13
2022-12-03T12:53:20.085Z,97.45
2022-12-03T12:55:49.052Z,92.93
2022-12-03T12:58:18.981Z,94.07
2022-12-03T13:01:07.997Z,90.28
2022-12-03T13:03:39.210Z,89.63
2022-12-03T13:06:07.116Z,91.03
2022-12-03T13:08:39.091Z,97.43
2022-12-03T13:11:06.950Z,95.90
2022-12-03T13:13:36.302Z,99.95
2022-12-03T13:16:27.721Z,82.88
2022-12-03T13:18:56.167Z,84.00
2022-12-03T13:21:28.118Z,91.75
2022-12-03T13:23:56.944Z,83.47
2022-12-03T13:26:38.267Z,87.60
2022-12-03T13:29:19.303Z,81.15
2022-12-03T13:32:05.462Z,83.97
2022-12-03T13:34:33.938Z,83.32
2022-12-03T13:37:01.703Z,90.18
2022-12-03T13:39:35.475Z,81.57
2022-12-03T13:42:26.960Z,89.00
2022-12-03T13:44:54.354Z,92.30
2022-12-03T13:47:23.172Z,86.78
2022-12-03T13:49:55.448Z,89.43
2022-12-03T13:52:25.474Z,100.40
2022-12-03T13:54:55.098Z,105.97
2022-12-03T13:57:22.746Z,94.57
2022-12-03T13:59:50.084Z,89.35
2022-12-03T14:02:17.338Z,104.90
2022-12-03T14:04:44.433Z,99.07
2022-12-03T14:07:11.395Z,103.00
2022-12-03T14:09:38.494Z,95.40
2022-12-03T14:12:24.433Z,96.43
2022-12-03T14:14:51.661Z,96.90
2022-12-03T14:17:18.657Z,101.57
2022-12-03T14:19:45.717Z,102.90
2022-12-03T14:22:12.778Z,93.15
2022-12-03T14:24:40.178Z,98.03
2022-12-03T14:27:07.313Z,88.43
2022-12-03T14:29:34.863Z,90.65
2022-12-03T14:32:02.299Z,87.43
2022-12-03T14:34:29.589Z,84.75
2022-12-03T14:36:56.837Z,81.50
2022-12-03T14:39:23.832Z,84.82
2022-12-03T14:42:09.608Z,85.25
2022-12-03T14:44:36.677Z,83.95
2022-12-03T14:47:03.735Z,90.57
2022-12-03T14:49:31.037Z,88.93
2022-12-03T14:51:59.753Z,85.63
2022-12-03T14:54:26.821Z,81.50
2022-12-03T14:56:53.853Z,87.00
2022-12-03T14:59:26.002Z,84.88
2022-12-03T15:01:55.030Z,76.45
2022-12-03T15:04:22.536Z,82.00
2022-12-03T15:06:49.573Z,92.55
2022-12-03T15:09:16.880Z,79.00
2022-12-03T15:11:46.358Z,87.97
2022-12-03T15:14:14.208Z,84.82
2022-12-03T15:16:41.336Z,73.90
2022-12-03T15:19:08.671Z,80.60
2022-12-03T15:21:35.979Z,80.97
2022-12-03T15:24:04.281Z,79.28
2022-12-03T15:26:31.425Z,84.15
2022-12-03T15:28:59.161Z,77.07
2022-12-03T15:31:27.353Z,75.60
2022-12-03T15:33:55.233Z,75.93
2022-12-03T15:36:22.638Z,76.88
2022-12-03T15:38:50.623Z,79.70
2022-12-03T15:41:37.054Z,80.78
2022-12-03T15:44:09.582Z,80.35
2022-12-03T15:46:37.417Z,82.32
2022-12-03T15:49:05.501Z,80.03
2022-12-03T15:51:34.258Z,83.18
2022-12-03T15:54:01.739Z,85.78
2022-12-03T15:56:31.287Z,84.60
2022-12-03T15:59:02.634Z,82.03
2022-12-03T16:01:31.625Z,87.40
2022-12-03T16:04:03.641Z,88.10
2022-12-03T16:06:33.992Z,85.95
2022-12-03T16:09:04.605Z,88.50
2022-12-03T16:11:36.465Z,87.88
2022-12-03T16:14:04.351Z,91.18
2022-12-03T16:16:31.563Z,85.63
2022-12-03T16:18:58.891Z,86.47
2022-12-03T16:21:27.309Z,89.43
2022-12-03T16:23:55.323Z,90.60
2022-12-03T16:26:23.291Z,87.07
2022-12-03T16:28:51.457Z,88.28
2022-12-03T16:31:21.931Z,86.78
2022-12-03T16:33:49.921Z,86.95
2022-12-03T16:36:18.039Z,88.78
2022-12-03T16:38:45.225Z,91.82
2022-12-03T16:41:12.504Z,84.78
2022-12-03T16:43:39.700Z,85.47
2022-12-03T16:46:21.288Z,62.80
2022-12-03T16:48:48.892Z,71.70
2022-12-03T16:51:16.612Z,78.35
2022-12-03T16:53:43.721Z,79.60
2022-12-03T16:56:11.096Z,83.05
2022-12-03T16:58:38.189Z,79.75
2022-12-03T17:01:05.562Z,81.78
2022-12-03T17:03:34.221Z,80.57
2022-12-03T17:06:02.198Z,89.97
2022-12-03T17:08:29.575Z,81.72
2022-12-03T17:10:56.826Z,88.95
2022-12-03T17:13:24.092Z,90.13
2022-12-03T17:15:51.734Z,89.65
2022-12-03T17:18:19.074Z,90.88
2022-12-03T17:20:46.238Z,93.80
2022-12-03T17:23:13.829Z,91.72
2022-12-03T17:25:40.850Z,93.47
2022-12-03T17:28:07.833Z,94.72
2022-12-03T17:30:35.381Z,95.35
2022-12-03T17:33:02.534Z,100.68
2022-12-03T17:35:29.750Z,100.72
2022-12-03T17:37:57.491Z,105.88
2022-12-03T17:40:26.001Z,107.75
2022-12-03T17:42:53.630Z,106.05
2022-12-03T17:45:20.764Z,109.20
2022-12-03T17:47:47.889Z,107.07
2022-12-03T17:50:15.045Z,99.53
2022-12-03T17:52:42.120Z,98.25
2022-12-03T17:55:12.196Z,97.63
2022-12-03T17:57:41.447Z,105.10
2022-12-03T18:00:10.062Z,104.90
2022-12-03T18:02:41.005Z,105.45
2022-12-03T18:05:08.721Z,113.90
2022-12-03T18:07:35.761Z,115.10
2022-12-03T18:10:03.079Z,106.25
2022-12-03T18:12:30.074Z,102.57
2022-12-03T18:14:57.137Z,108.55
2022-12-03T18:17:24.323Z,112.88
2022-12-03T18:19:51.696Z,107.20
2022-12-03T18:22:19.005Z,102.63
2022-12-03T18:24:48.879Z,109.10
2022-12-03T18:27:18.519Z,104.60
2022-12-03T18:29:46.134Z,106.68
2022-12-03T18:32:27.798Z,108.65
2022-12-03T18:34:55.872Z,102.32
2022-12-03T18:37:23.742Z,110.63
2022-12-03T18:39:50.914Z,105.80
2022-12-03T18:42:20.596Z,105.63
2022-12-03T18:44:50.051Z,107.97
2022-12-03T18:47:22.374Z,107.45
2022-12-03T18:49:50.314Z,95.30
2022-12-03T18:52:21.220Z,99.70
2022-12-03T18:54:48.816Z,110.95
2022-12-03T18:57:16.045Z,100.47
2022-12-03T18:59:43.084Z,95.45
2022-12-03T19:02:53.857Z,101.88
2022-12-03T19:05:07.098Z,103.30
2022-12-03T19:07:34.072Z,109.60
2022-12-03T19:10:01.276Z,100.30
2022-12-03T19:12:28.261Z,106.65
2022-12-03T19:14:55.233Z,110.47
2022-12-03T19:17:22.387Z,107.50
2022-12-03T19:19:49.538Z,105.07
2022-12-03T19:22:16.696Z,106.55
2022-12-03T19:24:44.081Z,106.90
2022-12-03T19:27:11.282Z,110.05
2022-12-03T19:29:38.343Z,111.70
2022-12-03T19:32:05.789Z,111.93
2022-12-03T19:34:32.813Z,110.00
2022-12-03T19:36:59.860Z,103.43
2022-12-03T19:39:27.024Z,110.85
2022-12-03T19:41:54.133Z,107.50
2022-12-03T19:44:21.099Z,110.43
2022-12-03T19:46:49.971Z,114.57
2022-12-03T19:49:18.766Z,104.53
2022-12-03T19:51:46.049Z,110.13
2022-12-03T19:54:13.575Z,113.63
2022-12-03T19:56:40.701Z,111.75
2022-12-03T19:59:08.197Z,112.95
2022-12-03T20:01:36.637Z,111.63
2022-12-03T20:04:04.490Z,107.13
2022-12-03T20:06:34.166Z,110.60
2022-12-03T20:09:07.484Z,99.55
2022-12-03T20:11:35.404Z,109.72
2022-12-03T20:14:06.072Z,104.00
2022-12-03T20:16:33.586Z,107.15
2022-12-03T20:19:04.150Z,101.82
2022-12-03T20:21:33.573Z,105.50
2022-12-03T20:24:01.330Z,115.78
2022-12-03T20:26:29.759Z,112.50
2022-12-03T20:28:58.294Z,104.78
2022-12-03T20:31:32.235Z,110.70
2022-12-03T20:34:03.491Z,102.43
2022-12-03T20:36:32.471Z,99.50
2022-12-03T20:39:03.558Z,107.85
2022-12-03T20:41:31.760Z,109.55
2022-12-03T20:43:59.396Z,108.82
2022-12-03T20:46:32.482Z,106.60
2022-12-03T20:49:00.898Z,108.13
2022-12-03T20:51:30.299Z,114.85
2022-12-03T20:54:01.372Z,106.70
2022-12-03T20:56:33.788Z,105.97
2022-12-03T20:59:08.060Z,104.05
2022-12-03T21:01:36.572Z,111.47
2022-12-03T21:04:05.830Z,101.38
2022-12-03T21:06:39.774Z,104.97
2022-12-03T21:09:09.683Z,102.25
2022-12-03T21:11:39.208Z,105.28
2022-12-03T21:14:06.859Z,108.18
2022-12-03T21:17:07.957Z,108.55
2022-12-03T21:19:24.573Z,106.07
2022-12-03T21:21:51.792Z,95.72
2022-12-03T21:24:18.759Z,98.60
2022-12-03T21:26:45.725Z,105.68
2022-12-03T21:29:13.251Z,96.45
2022-12-03T21:31:40.289Z,103.43
2022-12-03T21:34:08.858Z,101.05
2022-12-03T21:36:36.068Z,112.20
2022-12-03T21:39:04.130Z,114.30
2022-12-03T21:41:32.250Z,108.55
2022-12-03T21:43:59.524Z,107.57
2022-12-03T21:47:09.617Z,111.18
2022-12-03T21:49:14.822Z,105.22
2022-12-03T21:51:41.935Z,113.22
2022-12-03T21:54:09.012Z,103.68
2022-12-03T21:56:36.087Z,106.95
2022-12-03T21:59:03.197Z,105.32
2022-12-03T22:01:30.438Z,105.35
2022-12-03T22:03:57.476Z,107.32
2022-12-03T22:06:24.608Z,114.25
2022-12-03T22:08:51.666Z,104.35
2022-12-03T22:11:21.373Z,115.35
2022-12-03T22:13:49.110Z,107.40
2022-12-03T22:16:18.810Z,111.43
2022-12-03T22:18:46.060Z,115.93
2022-12-03T22:21:15.665Z,114.95
2022-12-03T22:23:42.951Z,111.38
2022-12-03T22:26:13.387Z,114.82
2022-12-03T22:28:43.764Z,114.70
2022-12-03T22:31:11.437Z,128.57
2022-12-03T22:33:39.277Z,122.28
2022-12-03T22:36:21.106Z,121.90
2022-12-03T22:38:50.128Z,116.88
2022-12-03T22:41:18.175Z,125.05
2022-12-03T22:43:45.985Z,130.73
2022-12-03T22:46:14.266Z,115.90
2022-12-03T22:48:43.587Z,128.95
2022-12-03T22:51:19.677Z,112.80
2022-12-03T22:53:47.650Z,122.32
2022-12-03T22:56:14.982Z,128.38
2022-12-03T22:58:42.277Z,125.53
2022-12-03T23:01:09.711Z,122.55
2022-12-03T23:03:37.407Z,114.25
2022-12-03T23:06:11.785Z,120.28
2022-12-03T23:08:38.808Z,118.38
2022-12-03T23:11:06.076Z,118.25
2022-12-03T23:13:33.172Z,112.47
2022-12-03T23:16:00.372Z,112.47
2022-12-03T23:18:27.656Z,117.82
2022-12-03T23:20:56.008Z,119.85
2022-12-03T23:23:25.091Z,122.68
2022-12-03T23:26:03.031Z,113.93
2022-12-03T23:28:31.802Z,125.88
2022-12-03T23:30:59.539Z,121.25
2022-12-03T23:33:26.940Z,122.00
2022-12-03T23:35:54.011Z,126.53
2022-12-03T23:38:21.049Z,120.57
2022-12-03T23:40:48.603Z,132.63
2022-12-03T23:43:16.246Z,121.00
2022-12-03T23:45:43.404Z,122.00
2022-12-03T23:48:10.558Z,129.43
2022-12-03T23:50:41.480Z,132.90
2022-12-03T23:53:09.241Z,118.60
2022-12-03T23:55:39.981Z,120.93
2022-12-03T23:58:07.102Z,127.43
